Time;durP1;ratioP1;P1;durP2;ratioP2;P2;SDS_P1;SDS_P2;PMS_P1;PMS_P2;Temp;Humidity;BMP_temperature;BMP_pressure;BME280_temperature;BME280_humidity;BME280_pressure;Samples;Min_cycle;Max_cycle;Signal;HPM_P1;HPM_P2
2021/09/03 00:00:24;;;;;;;3.03;2.55;;;22.50;53.00;;;26.56;35.35;102161.16;5095121;28;20040;-18
2021/09/03 00:02:53;;;;;;;3.33;2.50;;;22.50;53.00;;;26.56;35.35;102158.47;5094857;28;20138;-19
2021/09/03 00:05:21;;;;;;;3.53;2.90;;;22.50;53.00;;;26.51;35.45;102149.84;5095029;28;20132;-19
2021/09/03 00:07:48;;;;;;;3.63;2.80;;;22.40;53.00;;;26.56;35.41;102155.78;5094891;28;20048;-18
2021/09/03 00:10:16;;;;;;;3.22;2.50;;;22.40;53.00;;;26.55;35.57;102154.06;5094792;28;20044;-19
2021/09/03 00:12:42;;;;;;;3.25;2.30;;;22.50;53.10;;;26.55;35.51;102145.16;5094576;28;20059;-18
2021/09/03 00:15:12;;;;;;;3.13;2.60;;;22.50;53.00;;;26.52;35.41;102148.03;5076268;28;20050;-19
2021/09/03 00:17:39;;;;;;;3.00;2.70;;;22.50;53.00;;;26.52;35.44;102137.31;5094408;28;20048;-18
2021/09/03 00:20:09;;;;;;;3.38;2.65;;;22.40;53.00;;;26.55;35.37;102146.00;5094332;28;20490;-18
2021/09/03 00:22:35;;;;;;;4.30;2.58;;;22.40;53.00;;;26.56;35.51;102144.19;5094319;28;20055;-18
2021/09/03 00:25:01;;;;;;;3.33;2.35;;;22.50;53.10;;;26.55;35.40;102137.13;5076085;28;20056;-18
2021/09/03 00:27:27;;;;;;;3.25;2.90;;;22.50;53.00;;;26.51;35.30;102136.44;5094486;28;20398;-18
2021/09/03 00:29:53;;;;;;;3.45;2.30;;;22.40;53.00;;;26.54;35.46;102138.06;5094175;28;20046;-19
2021/09/03 00:32:18;;;;;;;3.42;2.75;;;22.40;53.00;;;26.51;35.32;102131.06;5094461;28;20405;-18
2021/09/03 00:34:44;;;;;;;3.22;2.63;;;22.50;53.00;;;26.52;35.50;102131.94;5094793;28;20051;-18
2021/09/03 00:37:10;;;;;;;2.85;2.53;;;22.40;53.10;;;26.54;35.38;102124.66;5094583;28;20048;-18
2021/09/03 00:39:36;;;;;;;2.83;2.63;;;22.40;53.00;;;26.54;35.43;102119.28;5094353;28;20051;-18
2021/09/03 00:42:10;;;;;;;2.75;2.40;;;22.50;53.10;;;26.53;35.16;102114.88;5094033;28;20123;-18
2021/09/03 00:44:36;;;;;;;4.22;3.08;;;22.40;53.00;;;26.53;35.45;102118.44;5094955;28;20051;-18
2021/09/03 00:47:02;;;;;;;3.72;3.00;;;22.40;53.00;;;26.50;35.33;102109.75;5094681;28;20044;-18
2021/09/03 00:49:27;;;;;;;2.58;2.30;;;22.40;53.10;;;26.54;35.50;102116.63;5094378;28;20048;-18
2021/09/03 00:51:54;;;;;;;3.22;2.72;;;22.40;53.00;;;26.50;35.33;102107.91;5094121;28;20055;-18
2021/09/03 00:54:19;;;;;;;2.80;2.47;;;22.40;53.00;;;26.52;35.34;102111.34;5094309;28;20481;-19
2021/09/03 00:56:46;;;;;;;3.53;2.45;;;22.40;53.10;;;26.51;35.58;102109.63;5094081;28;20059;-18
2021/09/03 00:59:12;;;;;;;3.55;2.28;;;22.40;53.00;;;26.51;35.44;102109.63;5092929;28;20482;-18
2021/09/03 01:01:38;;;;;;;3.00;2.55;;;22.40;53.10;;;26.50;35.42;102107.91;5094005;28;20097;-18
2021/09/03 01:04:04;;;;;;;4.03;2.83;;;22.40;53.10;;;26.45;35.36;102102.00;5094069;28;20056;-19
2021/09/03 01:06:30;;;;;;;2.80;2.40;;;22.40;53.10;;;26.52;35.45;102102.44;5075904;28;20044;-18
2021/09/03 01:08:55;;;;;;;3.25;2.75;;;22.40;53.00;;;26.47;35.51;102092.03;5076220;28;20071;-18
2021/09/03 01:11:21;;;;;;;2.63;2.38;;;22.40;53.10;;;26.49;35.50;102090.09;5094230;28;20483;-19
2021/09/03 01:13:47;;;;;;;3.17;2.35;;;22.40;53.10;;;26.52;35.37;102099.78;5094294;28;20052;-18
2021/09/03 01:16:13;;;;;;;2.42;2.22;;;22.40;53.10;;;26.52;35.53;102103.31;5093743;28;20039;-18
2021/09/03 01:18:39;;;;;;;3.00;2.50;;;22.40;53.10;;;26.52;35.45;102094.41;5094119;28;20056;-19
2021/09/03 01:21:04;;;;;;;2.58;2.38;;;22.40;53.10;;;26.52;35.44;102094.41;5093814;28;20052;-18
2021/09/03 01:23:30;;;;;;;2.80;2.50;;;22.40;53.10;;;26.50;35.44;102085.59;5094059;28;20143;-19
2021/09/03 01:26:02;;;;;;;2.78;2.47;;;22.40;53.10;;;26.50;35.50;102078.41;5094214;28;20474;-18
2021/09/03 01:28:28;;;;;;;2.47;2.28;;;22.40;53.10;;;26.49;35.50;102076.69;5093400;28;20056;-18
2021/09/03 01:30:54;;;;;;;3.65;2.20;;;22.40;53.10;;;26.50;35.49;102075.72;5093663;28;20417;-19
2021/09/03 01:33:20;;;;;;;3.40;2.47;;;22.40;53.10;;;26.44;35.44;102066.25;5093981;28;20047;-18
2021/09/03 01:35:45;;;;;;;2.63;2.38;;;22.40;53.10;;;26.49;35.20;102079.34;5093460;28;20052;-18
2021/09/03 01:38:11;;;;;;;3.50;2.90;;;22.40;53.10;;;26.48;35.46;102068.72;5093315;28;20047;-18
2021/09/03 01:40:37;;;;;;;2.85;2.40;;;22.40;53.10;;;26.47;35.46;102067.88;5093872;28;20046;-18
2021/09/03 01:43:03;;;;;;;2.40;2.20;;;22.40;53.10;;;26.51;35.39;102069.38;5093403;28;20428;-18
2021/09/03 01:45:29;;;;;;;2.75;2.47;;;22.40;53.20;;;26.49;35.46;102070.47;5075265;28;20056;-19
2021/09/03 01:47:54;;;;;;;2.78;2.47;;;22.40;53.20;;;26.47;35.33;102061.66;5093230;28;20486;-18
2021/09/03 01:50:21;;;;;;;4.10;2.72;;;22.40;53.10;;;26.49;35.50;102065.09;5089919;28;20052;-18
2021/09/03 01:52:50;;;;;;;3.10;2.60;;;22.40;53.70;;;26.47;35.51;102065.19;5093287;28;20545;-18
2021/09/03 01:55:16;;;;;;;2.30;2.10;;;22.40;53.10;;;26.44;35.29;102057.34;5092400;28;20051;-19
2021/09/03 01:57:41;;;;;;;3.58;2.83;;;22.40;53.10;;;26.47;35.59;102058.97;5073713;28;20064;-19
2021/09/03 02:00:08;;;;;;;3.88;2.55;;;22.40;53.10;;;26.42;35.38;102044.03;5092957;28;20051;-19
2021/09/03 02:02:40;;;;;;;3.40;2.42;;;22.40;53.20;;;26.44;35.48;102052.00;5093408;28;20538;-18
2021/09/03 02:05:07;;;;;;;2.33;2.13;;;22.40;53.20;;;26.45;35.51;102051.03;5092750;28;20055;-18
2021/09/03 02:07:33;;;;;;;3.60;2.90;;;22.40;53.10;;;26.48;35.36;102049.94;5092422;28;20143;-18
2021/09/03 02:09:59;;;;;;;2.72;2.50;;;22.40;53.10;;;26.47;35.36;102046.41;5092782;28;20048;-19
2021/09/03 02:12:25;;;;;;;3.15;2.67;;;22.40;53.10;;;26.42;35.40;102038.69;5092710;28;20067;-18
2021/09/03 02:14:51;;;;;;;3.05;2.72;;;22.40;53.10;;;26.47;35.45;102041.06;5092672;28;20052;-19
2021/09/03 02:17:17;;;;;;;2.85;2.50;;;22.40;53.10;;;26.46;35.47;102044.69;5092915;28;20044;-19
2021/09/03 02:19:43;;;;;;;2.63;2.35;;;22.40;53.10;;;26.46;35.54;102042.00;5092893;28;20055;-19
2021/09/03 02:22:10;;;;;;;2.70;2.33;;;22.30;53.10;;;26.40;35.52;102035.25;5092753;28;20076;-18
2021/09/03 02:24:36;;;;;;;2.75;2.55;;;22.30;53.10;;;26.42;35.38;102032.47;5092822;28;20052;-18
2021/09/03 02:27:01;;;;;;;2.33;2.10;;;22.40;53.10;;;26.47;35.37;102045.56;5092795;28;20540;-18
2021/09/03 02:29:27;;;;;;;3.42;2.95;;;22.30;53.00;;;26.46;35.42;102042.00;5093039;28;20086;-18
2021/09/03 02:31:54;;;;;;;2.75;2.25;;;22.30;53.10;;;26.46;35.49;102035.78;5092996;28;20036;-18
2021/09/03 02:34:22;;;;;;;2.65;2.45;;;22.40;53.10;;;26.44;35.44;102038.56;5092750;28;20054;-18
2021/09/03 02:36:48;;;;;;;3.17;2.67;;;22.40;53.10;;;26.43;35.55;102027.00;5093237;28;20379;-19
2021/09/03 02:39:14;;;;;;;2.40;2.20;;;22.40;53.10;;;26.44;35.33;102030.53;5092519;28;20047;-18
2021/09/03 02:41:40;;;;;;;3.13;2.53;;;22.40;53.20;;;26.42;35.38;102024.41;5092482;28;20047;-18
2021/09/03 02:44:05;;;;;;;3.72;2.70;;;22.40;53.20;;;26.46;35.53;102031.28;5093191;28;20048;-18
2021/09/03 02:46:31;;;;;;;3.47;2.78;;;22.30;53.10;;;26.44;35.49;102019.81;5093063;28;20055;-18
2021/09/03 02:48:57;;;;;;;3.03;2.67;;;22.40;53.10;;;26.46;35.45;102023.25;5092446;28;20044;-19
2021/09/03 02:51:23;;;;;;;2.70;2.50;;;22.30;53.10;;;26.46;35.34;102022.38;5092434;28;20378;-18
2021/09/03 02:53:48;;;;;;;2.38;2.13;;;22.30;53.10;;;26.44;35.50;102017.97;5092491;28;20494;-18
2021/09/03 02:56:14;;;;;;;2.88;2.55;;;22.30;53.00;;;26.40;35.44;102010.25;5092733;28;20477;-19
2021/09/03 02:58:40;;;;;;;3.17;2.55;;;22.30;53.00;;;26.41;35.23;102004.78;5072411;28;20052;-18
2021/09/03 03:01:05;;;;;;;2.75;2.45;;;22.30;53.00;;;26.46;35.38;102014.34;5092229;28;20052;-18
2021/09/03 03:03:32;;;;;;;3.67;3.00;;;22.30;53.10;;;26.43;35.42;102015.44;5092354;28;20055;-18
2021/09/03 03:05:58;;;;;;;3.30;2.60;;;22.30;53.10;;;26.39;35.48;102006.69;5094456;28;20052;-18
2021/09/03 03:08:24;;;;;;;2.60;2.40;;;22.30;53.10;;;26.40;35.49;102003.06;5095877;28;20044;-18
2021/09/03 03:10:49;;;;;;;2.63;2.42;;;22.30;53.10;;;26.39;35.58;102004.00;5095576;28;20051;-18
2021/09/03 03:13:51;;;;;;;2.70;2.45;;;22.30;53.10;;;26.40;35.34;102008.44;5096447;28;20052;-18
2021/09/03 03:16:07;;;;;;;2.90;2.30;;;22.30;53.10;;;26.41;35.53;102007.47;5089889;28;20109;-18
2021/09/03 03:18:34;;;;;;;2.80;2.60;;;22.30;53.10;;;26.47;35.38;102016.06;5095683;28;20052;-18
2021/09/03 03:21:01;;;;;;;3.67;3.15;;;22.40;53.20;;;26.39;35.50;101998.66;5092755;28;20068;-18
2021/09/03 03:23:26;;;;;;;2.90;2.50;;;22.30;53.10;;;26.39;35.52;102001.34;5095875;28;20054;-18
2021/09/03 03:25:52;;;;;;;2.78;2.35;;;22.30;53.10;;;26.41;35.38;102003.91;5095742;28;20397;-18
2021/09/03 03:28:18;;;;;;;2.78;2.20;;;22.30;53.10;;;26.39;35.42;101997.81;5095522;28;20565;-18
2021/09/03 03:30:44;;;;;;;2.50;2.30;;;22.30;53.10;;;26.41;35.39;101995.88;5095547;28;20554;-19
2021/09/03 03:33:09;;;;;;;2.75;2.42;;;22.30;53.10;;;26.43;35.42;102000.19;5095801;28;20059;-18
2021/09/03 03:35:35;;;;;;;3.13;2.60;;;22.30;53.10;;;26.38;35.51;101994.28;5095504;28;20390;-18
2021/09/03 03:38:01;;;;;;;3.03;2.30;;;22.40;53.20;;;26.42;35.45;101998.44;5094422;28;20489;-18
2021/09/03 03:40:26;;;;;;;3.38;2.40;;;22.30;53.10;;;26.40;35.49;101999.53;5095644;28;20135;-18
2021/09/03 03:42:52;;;;;;;2.80;2.40;;;22.30;53.10;;;26.38;35.58;101993.41;5077103;28;20051;-19
2021/09/03 03:45:19;;;;;;;3.28;2.58;;;22.30;53.10;;;26.39;35.52;101990.63;5095333;28;20044;-18
2021/09/03 03:47:45;;;;;;;3.42;2.10;;;22.30;53.10;;;26.41;35.56;101994.06;5095261;28;20093;-18
2021/09/03 03:50:12;;;;;;;3.20;2.25;;;22.30;53.00;;;26.42;35.56;101982.38;5094824;28;20052;-20
2021/09/03 03:52:38;;;;;;;2.72;2.50;;;22.30;53.10;;;26.38;35.33;101963.91;5075926;28;20405;-18
2021/09/03 03:55:05;;;;;;;2.38;2.17;;;22.30;53.10;;;26.41;35.37;101974.41;5095124;28;20082;-19
2021/09/03 03:57:31;;;;;;;3.47;2.78;;;22.30;53.00;;;26.44;35.50;101971.53;5076953;28;20143;-18
2021/09/03 03:59:57;;;;;;;2.60;2.40;;;22.30;53.00;;;26.41;35.47;101969.94;5094906;28;20066;-19
2021/09/03 04:02:22;;;;;;;3.20;2.75;;;22.30;53.10;;;26.42;35.48;101968.94;5094892;28;20067;-18
2021/09/03 04:04:48;;;;;;;2.50;2.30;;;22.40;53.10;;;26.42;35.46;101963.59;5094994;28;20075;-19
2021/09/03 04:07:14;;;;;;;2.85;2.50;;;22.30;53.10;;;26.43;35.52;101961.78;5094806;28;20117;-18
2021/09/03 04:09:39;;;;;;;2.78;2.50;;;22.30;53.10;;;26.39;35.48;101957.59;5094853;28;20379;-18
2021/09/03 04:12:06;;;;;;;3.33;2.70;;;22.30;53.00;;;26.41;35.36;101948.47;5094895;28;20490;-18
2021/09/03 04:14:31;;;;;;;2.78;2.45;;;22.30;53.00;;;26.39;35.47;101946.84;5077073;28;20473;-19
2021/09/03 04:16:57;;;;;;;3.17;2.63;;;22.30;53.00;;;26.42;35.40;101952.88;5094350;28;20046;-18
2021/09/03 04:19:23;;;;;;;2.97;2.40;;;22.30;53.00;;;26.42;35.53;101949.34;5095010;28;20044;-19
2021/09/03 04:21:49;;;;;;;2.58;2.38;;;22.30;53.00;;;26.40;35.49;101946.75;5094728;28;20052;-19
2021/09/03 04:24:15;;;;;;;2.30;2.10;;;22.30;53.00;;;26.42;35.30;101943.97;5094726;28;20501;-18
2021/09/03 04:26:40;;;;;;;3.15;2.55;;;22.30;53.00;;;26.41;35.38;101943.13;5094754;28;20485;-18
2021/09/03 04:29:06;;;;;;;3.05;2.67;;;22.30;53.00;;;26.43;35.41;101946.56;5094536;28;20397;-18
2021/09/03 04:31:32;;;;;;;3.33;2.88;;;22.30;53.00;;;26.38;35.56;101937.09;5094619;28;20044;-18
2021/09/03 04:33:57;;;;;;;2.53;2.33;;;22.30;53.10;;;26.36;35.29;101929.16;5094895;28;20056;-18
2021/09/03 04:36:23;;;;;;;2.95;2.50;;;22.30;53.00;;;26.40;35.33;101929.81;5094489;28;20048;-18
2021/09/03 04:38:49;;;;;;;2.95;2.58;;;22.30;53.00;;;26.39;35.27;101936.13;5093444;28;20055;-18
2021/09/03 04:41:15;;;;;;;2.58;2.28;;;22.30;53.00;;;26.41;35.40;101937.75;5076235;28;20145;-18
2021/09/03 04:43:40;;;;;;;3.22;2.72;;;22.30;53.00;;;26.42;35.47;101943.97;5094409;28;20056;-18
2021/09/03 04:46:06;;;;;;;3.35;2.70;;;22.30;53.00;;;26.40;35.39;101941.38;5094878;28;20063;-18
2021/09/03 04:48:32;;;;;;;3.20;2.70;;;22.30;53.00;;;26.40;35.52;101935.19;5094298;28;20051;-18
2021/09/03 04:50:57;;;;;;;2.30;2.10;;;22.40;53.10;;;26.39;35.37;101928.94;5094366;28;20059;-18
2021/09/03 04:53:23;;;;;;;3.42;2.47;;;22.30;53.00;;;26.38;35.53;101926.34;5094212;28;20059;-19
2021/09/03 04:55:49;;;;;;;2.55;2.35;;;22.40;53.10;;;26.43;35.27;101934.97;5094166;28;20044;-17
2021/09/03 04:58:15;;;;;;;3.15;2.50;;;22.30;53.00;;;26.42;35.46;101936.78;5094481;28;20114;-18
2021/09/03 05:00:41;;;;;;;2.67;2.42;;;22.30;53.00;;;26.43;35.48;101932.28;5094102;28;20482;-19
2021/09/03 05:03:06;;;;;;;2.70;2.28;;;22.30;53.00;;;26.38;35.50;101919.19;5094053;28;20091;-18
2021/09/03 05:05:32;;;;;;;2.90;2.40;;;22.30;53.00;;;26.39;35.52;101920.03;5094161;28;20058;-19
2021/09/03 05:07:58;;;;;;;2.95;2.65;;;22.40;53.00;;;26.42;35.41;101928.72;5094051;28;20097;-18
2021/09/03 05:10:24;;;;;;;3.17;2.67;;;22.30;52.90;;;26.40;35.38;101929.81;5094315;28;20097;-18
2021/09/03 05:12:50;;;;;;;2.58;2.38;;;22.40;53.00;;;26.40;35.33;101924.44;5094298;28;20056;-18
2021/09/03 05:15:17;;;;;;;3.10;2.58;;;22.40;53.00;;;26.39;35.37;101920.03;5093853;28;20052;-19
2021/09/03 05:17:51;;;;;;;4.03;2.90;;;22.40;53.00;;;26.39;35.47;101922.72;5075861;28;20463;-18
2021/09/03 05:20:21;;;;;;;3.15;2.47;;;22.30;52.80;;;26.38;35.47;101919.19;5093907;28;20424;-19
2021/09/03 05:22:47;;;;;;;3.20;2.90;;;22.40;52.90;;;26.43;35.24;101922.41;5093693;28;20048;-18
2021/09/03 05:25:14;;;;;;;3.25;2.55;;;22.40;52.90;;;26.44;35.24;101921.44;5093496;28;20059;-19
2021/09/03 05:27:43;;;;;;;3.80;2.67;;;22.40;52.90;;;26.41;35.43;101926.16;5093303;28;20048;-18
2021/09/03 05:30:10;;;;;;;2.63;2.42;;;22.40;52.90;;;26.45;35.29;101925.00;5089927;28;20051;-19
2021/09/03 05:32:36;;;;;;;2.53;2.20;;;22.40;52.80;;;26.42;35.33;101911.78;5073560;28;20057;-19
2021/09/03 05:35:04;;;;;;;2.85;2.58;;;22.40;52.90;;;26.40;35.38;101917.25;5093369;28;20169;-18
2021/09/03 05:37:30;;;;;;;2.88;2.45;;;22.40;52.80;;;26.41;35.34;101918.09;5093255;28;20051;-18
2021/09/03 05:39:58;;;;;;;3.40;2.47;;;22.40;52.80;;;26.44;35.29;101917.91;5093424;28;20044;-18
2021/09/03 05:42:24;;;;;;;3.35;2.65;;;22.40;52.80;;;26.43;35.38;101919.72;5093856;28;20118;-18
2021/09/03 05:44:50;;;;;;;2.85;2.45;;;22.40;52.70;;;26.47;35.43;101928.41;5093991;28;20056;-19
2021/09/03 05:47:16;;;;;;;3.08;2.40;;;22.40;52.70;;;26.47;35.26;101933.78;5093786;28;20044;-18
2021/09/03 05:49:42;;;;;;;2.42;2.20;;;22.40;52.70;;;26.44;35.34;101917.91;5094049;28;20040;-18
2021/09/03 05:52:07;;;;;;;4.70;2.38;;;22.40;52.70;;;26.46;35.27;101918.66;5093499;28;20052;-19
2021/09/03 05:54:33;;;;;;;2.53;2.20;;;22.40;52.60;;;26.44;35.15;101918.75;5093337;28;20398;-18
2021/09/03 05:56:59;;;;;;;3.00;2.70;;;22.40;52.60;;;26.50;35.21;101919.31;5093198;28;20048;-19
2021/09/03 05:59:24;;;;;;;3.28;2.97;;;22.50;52.60;;;26.46;35.37;101910.59;5093481;28;20048;-18
2021/09/03 06:01:50;;;;;;;2.50;2.30;;;22.40;52.60;;;26.50;35.22;101914.81;5074903;28;20052;-18
2021/09/03 06:04:16;;;;;;;2.47;2.28;;;22.50;52.60;;;26.51;35.33;101912.97;5093192;28;20073;-19
2021/09/03 06:06:42;;;;;;;2.65;2.30;;;22.50;52.50;;;26.51;35.29;101915.66;5092876;28;20040;-18
2021/09/03 06:09:07;;;;;;;3.17;2.22;;;22.50;52.50;;;26.48;35.08;101899.78;5092874;28;20063;-18
2021/09/03 06:11:33;;;;;;;2.78;2.33;;;22.50;52.50;;;26.53;35.12;101905.66;5093273;28;20040;-19
2021/09/03 06:13:59;;;;;;;2.63;2.42;;;22.50;52.40;;;26.52;35.20;101909.34;5093055;28;20058;-18
2021/09/03 06:16:25;;;;;;;3.03;2.47;;;22.50;52.50;;;26.53;35.01;101906.56;5092851;28;20052;-18
2021/09/03 06:18:51;;;;;;;2.38;2.15;;;22.50;52.40;;;26.53;35.03;101908.34;5074752;28;20048;-19
2021/09/03 06:21:17;;;;;;;2.80;2.33;;;22.50;52.30;;;26.52;35.14;101910.19;5092920;28;20040;-18
2021/09/03 06:23:43;;;;;;;2.97;2.45;;;22.50;52.40;;;26.54;35.10;101910.09;5092645;28;20054;-18
2021/09/03 06:26:09;;;;;;;2.90;2.35;;;22.50;52.30;;;26.50;35.04;101901.41;5092845;28;20907;-20
2021/09/03 06:28:35;;;;;;;3.05;2.20;;;22.50;52.30;;;26.51;34.95;101895.03;5093086;28;20409;-18
2021/09/03 06:31:01;;;;;;;3.35;2.50;;;22.50;52.20;;;26.54;35.16;101892.16;5092676;28;20477;-18
2021/09/03 06:33:27;;;;;;;5.75;2.70;;;22.60;52.40;;;26.57;35.16;101896.47;5093275;28;20051;-19
2021/09/03 06:35:53;;;;;;;4.20;2.58;;;22.50;52.40;;;26.57;35.05;101894.63;5092714;28;20048;-18
2021/09/03 06:38:19;;;;;;;4.45;2.85;;;22.50;52.50;;;26.54;35.13;101886.78;5092687;28;20093;-18
2021/09/03 06:40:45;;;;;;;7.25;3.47;;;22.60;52.70;;;26.62;35.35;101891.63;5074357;28;20079;-19
2021/09/03 06:43:10;;;;;;;5.93;3.42;;;22.60;53.50;;;26.63;35.36;101898.75;5092569;28;20056;-18
2021/09/03 06:45:36;;;;;;;8.30;3.83;;;22.70;53.10;;;26.60;35.44;101880.16;5092470;28;20043;-18
2021/09/03 06:48:02;;;;;;;13.85;4.25;;;22.60;53.30;;;26.65;35.79;101890.56;5092482;28;20513;-18
2021/09/03 06:50:28;;;;;;;17.48;4.70;;;22.60;53.90;;;26.66;37.68;101893.16;5092817;28;20556;-9
2021/09/03 06:52:54;;;;;;;15.73;5.15;;;22.70;55.70;;;26.64;38.36;101889.72;5092776;28;20050;-9
2021/09/03 06:55:20;;;;;;;14.02;4.80;;;22.70;58.40;;;26.57;37.72;101889.25;5092507;28;20051;-9
2021/09/03 06:57:46;;;;;;;16.83;4.80;;;22.70;56.30;;;26.53;37.78;101889.56;5074100;28;20150;-9
2021/09/03 07:00:12;;;;;;;11.80;5.50;;;22.70;56.30;;;26.51;38.13;101891.50;5092154;28;20417;-9
2021/09/03 07:02:38;;;;;;;15.82;4.57;;;22.80;56.50;;;26.51;37.89;101895.03;5092548;28;20143;-9
2021/09/03 07:05:05;;;;;;;14.25;5.05;;;22.80;56.70;;;26.48;38.26;101889.91;5092194;28;20048;-9
2021/09/03 07:07:31;;;;;;;17.83;4.88;;;22.80;57.00;;;26.47;38.33;101884.66;5092072;28;20052;-10
2021/09/03 07:09:57;;;;;;;13.82;4.95;;;22.70;57.30;;;26.47;38.58;101893.56;5072565;28;20045;-9
2021/09/03 07:12:24;;;;;;;21.80;5.03;;;22.80;58.20;;;26.51;39.23;101896.88;5092532;28;20040;-9
2021/09/03 07:14:50;;;;;;;19.35;5.70;;;22.80;59.10;;;26.47;39.15;101898.91;5092110;28;20052;-9
2021/09/03 07:17:17;;;;;;;24.05;5.25;;;22.70;58.50;;;26.41;39.33;101896.66;5072883;28;20098;-9
2021/09/03 07:19:43;;;;;;;12.23;5.25;;;22.60;58.90;;;26.40;39.40;101898.47;5092120;28;20136;-9
2021/09/03 07:22:09;;;;;;;16.58;5.18;;;22.50;58.60;;;26.36;39.28;101891.63;5092030;28;20040;-9
2021/09/03 07:24:35;;;;;;;12.35;5.00;;;22.60;58.60;;;26.41;39.16;101888.59;5092445;28;20056;-9
2021/09/03 07:27:02;;;;;;;13.32;5.35;;;22.60;58.30;;;26.41;39.25;101886.81;5092115;28;20127;-9
2021/09/03 07:29:27;;;;;;;10.00;5.00;;;22.60;58.10;;;26.44;39.05;101891.09;5091964;28;20113;-9
2021/09/03 07:31:53;;;;;;;18.05;5.97;;;22.60;57.80;;;26.47;39.14;101892.72;5091976;28;20044;-9
2021/09/03 07:34:19;;;;;;;12.80;5.28;;;22.60;57.70;;;26.49;38.98;101883.56;5092009;28;20044;-9
2021/09/03 07:36:45;;;;;;;14.05;5.15;;;22.70;57.70;;;26.50;38.85;101879.94;5092020;28;20097;-9
2021/09/03 07:39:12;;;;;;;20.17;5.57;;;22.70;57.80;;;26.50;38.82;101879.94;5091973;28;20055;-9
2021/09/03 07:41:38;;;;;;;17.50;5.45;;;22.70;57.60;;;26.51;38.94;101872.75;5091815;28;20048;-9
2021/09/03 07:44:04;;;;;;;11.32;4.75;;;22.80;57.70;;;26.53;38.84;101878.84;5092108;28;20529;-9
2021/09/03 07:46:29;;;;;;;15.45;5.63;;;22.80;57.60;;;26.56;38.72;101882.19;5091765;28;20121;-9
2021/09/03 07:48:55;;;;;;;16.05;5.63;;;22.80;57.30;;;26.59;38.88;101881.97;5091690;28;20051;-9
2021/09/03 07:51:21;;;;;;;13.57;5.32;;;22.80;57.30;;;26.58;38.68;101882.06;5092003;28;20048;-9
2021/09/03 07:53:47;;;;;;;14.52;5.20;;;22.80;57.10;;;26.62;38.72;101880.91;5076691;28;20044;-9
2021/09/03 07:56:12;;;;;;;13.18;4.82;;;22.90;57.00;;;26.62;38.77;101878.22;5095386;28;20052;-9
2021/09/03 07:58:38;;;;;;;11.40;5.60;;;22.90;56.70;;;26.67;38.44;101876.09;5095587;28;20486;-9
2021/09/03 08:01:04;;;;;;;10.35;5.47;;;23.00;56.60;;;26.67;38.56;101872.56;5095074;28;20130;-9
2021/09/03 08:03:30;;;;;;;12.10;5.15;;;23.00;56.30;;;26.72;38.44;101878.47;5095233;28;20048;-9
2021/09/03 08:05:56;;;;;;;10.45;4.90;;;23.10;56.10;;;26.74;38.33;101873.84;5095020;28;20063;-9
2021/09/03 08:08:22;;;;;;;14.18;5.28;;;23.20;55.80;;;26.82;38.48;101871.47;5093558;28;20040;-9
2021/09/03 08:10:48;;;;;;;11.77;5.13;;;23.30;55.60;;;26.85;38.14;101873.06;5094900;28;20050;-9
2021/09/03 08:13:14;;;;;;;11.05;4.50;;;23.30;55.30;;;26.89;38.11;101872.75;5095481;28;20515;-9
2021/09/03 08:15:41;;;;;;;13.00;6.10;;;23.30;55.20;;;26.89;38.24;101869.22;5094915;28;20102;-9
2021/09/03 08:18:07;;;;;;;15.10;5.10;;;23.30;55.30;;;26.90;37.94;101866.41;5094627;28;20048;-9
2021/09/03 08:20:34;;;;;;;14.23;5.38;;;23.30;55.20;;;26.96;37.95;101878.53;5094787;28;20040;-9
2021/09/03 08:23:03;;;;;;;12.73;5.28;;;23.30;55.00;;;26.96;37.93;101866.00;5094954;28;20130;-9
2021/09/03 08:25:30;;;;;;;20.40;5.05;;;23.40;54.90;;;26.97;37.95;101869.53;5094627;28;20071;-9
2021/09/03 08:27:56;;;;;;;16.77;5.78;;;23.40;55.40;;;27.01;37.59;101867.47;5094857;28;20062;-9
2021/09/03 08:30:23;;;;;;;11.10;5.18;;;23.40;54.80;;;27.01;38.05;101864.78;5094710;28;20048;-9
2021/09/03 08:32:50;;;;;;;16.98;5.07;;;23.40;54.80;;;27.06;37.66;101870.69;5094646;28;20052;-9
2021/09/03 08:35:16;;;;;;;9.32;4.82;;;23.50;54.60;;;27.09;37.54;101876.69;5094861;28;20047;-9
2021/09/03 08:37:42;;;;;;;14.43;5.45;;;23.60;54.30;;;27.13;37.68;101877.31;5075658;28;20075;-9
2021/09/03 08:40:11;;;;;;;12.13;4.95;;;23.60;54.20;;;27.17;37.23;101874.28;5094736;28;20055;-9
2021/09/03 08:42:40;;;;;;;16.67;5.13;;;23.60;54.10;;;27.15;37.44;101865.50;5094082;28;20054;-9
2021/09/03 08:45:10;;;;;;;11.27;5.82;;;23.60;54.20;;;27.17;37.39;101866.25;5094252;28;20048;-9
2021/09/03 08:47:38;;;;;;;18.85;5.75;;;23.60;54.20;;;27.21;37.15;101866.88;5094075;28;20581;-9
2021/09/03 08:50:05;;;;;;;15.35;5.07;;;23.50;54.20;;;27.20;37.34;101864.28;5094084;28;20063;-9
2021/09/03 08:52:31;;;;;;;15.23;5.65;;;23.50;54.20;;;27.20;37.10;101866.97;5093946;28;20052;-9
2021/09/03 08:54:57;;;;;;;12.32;5.63;;;23.50;54.20;;;27.18;37.21;101862.59;5093865;28;20044;-9
2021/09/03 08:57:22;;;;;;;14.18;5.28;;;23.50;54.20;;;27.17;37.10;101860.03;5094495;28;20044;-10
2021/09/03 08:59:48;;;;;;;14.93;5.45;;;23.50;54.20;;;27.18;37.33;101861.72;5093705;28;20059;-9
2021/09/03 09:02:18;;;;;;;16.35;5.88;;;23.50;54.20;;;27.17;37.18;101862.72;5094303;28;20052;-9
2021/09/03 09:04:50;;;;;;;8.50;5.13;;;23.50;54.10;;;27.16;37.15;101861.88;5093808;28;20047;-9
2021/09/03 09:07:16;;;;;;;10.77;5.45;;;23.50;54.10;;;27.17;37.07;101866.25;5094307;28;20143;-9
2021/09/03 09:09:47;;;;;;;15.50;5.70;;;23.50;54.20;;;27.13;37.11;101859.41;5093952;28;20177;-9
2021/09/03 09:12:17;;;;;;;9.98;4.90;;;23.50;54.20;;;27.15;37.16;101862.81;5094353;28;20151;-9
2021/09/03 09:15:02;;;;;;;15.48;5.45;;;23.40;54.20;;;27.15;37.13;101862.81;5075633;28;20044;-9
2021/09/03 09:17:38;;;;;;;16.95;5.82;;;23.40;54.20;;;27.12;37.26;101852.31;5093596;28;20083;-10
2021/09/03 09:20:13;;;;;;;10.82;5.43;;;23.40;54.20;;;27.09;37.25;101848.97;5094223;28;20043;-9
2021/09/03 09:22:57;;;;;;;9.93;4.90;;;23.40;54.30;;;27.12;37.03;101860.34;5093495;28;20139;-9
2021/09/03 09:25:34;;;;;;;12.90;5.38;;;23.30;54.30;;;27.07;37.34;101851.78;5093734;28;20048;-9
2021/09/03 09:28:21;;;;;;;11.32;4.70;;;23.30;54.20;;;27.06;37.23;101844.69;5093684;28;20402;-9
2021/09/03 09:30:49;;;;;;;14.70;5.80;;;23.30;54.30;;;27.08;37.03;101856.19;5093929;28;20048;-9
2021/09/03 09:33:22;;;;;;;13.32;5.25;;;23.30;54.30;;;27.08;37.05;101849.94;5093679;28;20052;-10
2021/09/03 09:35:54;;;;;;;10.55;5.20;;;23.30;54.30;;;27.07;36.92;101857.16;5093907;28;20504;-9
2021/09/03 09:38:22;;;;;;;10.73;5.35;;;23.30;54.30;;;27.06;36.97;101846.53;5093608;28;20482;-9
2021/09/03 09:41:06;;;;;;;13.40;5.28;;;23.30;54.30;;;27.01;37.08;101852.22;5093380;28;20432;-9
2021/09/03 09:43:42;;;;;;;8.60;4.95;;;23.30;54.30;;;27.04;36.97;101852.00;5093384;28;20048;-9
2021/09/03 09:46:07;;;;;;;10.60;5.35;;;23.30;54.20;;;27.06;36.90;101858.09;5093536;28;20455;-9
2021/09/03 09:48:52;;;;;;;11.00;5.25;;;23.30;54.20;;;27.05;37.08;101855.53;5093315;28;20052;-9
2021/09/03 09:51:21;;;;;;;14.15;5.35;;;23.30;54.30;;;27.03;37.03;101841.38;5075162;28;20052;-9
2021/09/03 09:53:53;;;;;;;10.55;5.20;;;23.20;54.20;;;27.04;37.05;101845.78;5093249;28;20132;-9
2021/09/03 09:56:21;;;;;;;13.27;4.95;;;23.20;54.20;;;27.04;36.95;101843.09;5093173;28;20494;-10
2021/09/03 09:58:51;;;;;;;12.20;5.65;;;23.20;54.20;;;27.03;37.06;101844.06;5093347;28;20056;-9
2021/09/03 10:01:19;;;;;;;14.38;5.32;;;23.20;54.20;;;27.02;36.76;101847.72;5093147;28;20048;-9
2021/09/03 10:03:50;;;;;;;9.80;5.45;;;23.20;54.10;;;26.99;36.90;101838.91;5093380;28;20062;-9
2021/09/03 10:06:20;;;;;;;7.82;4.75;;;23.20;54.10;;;26.99;36.77;101836.22;5093672;28;20124;-9
2021/09/03 10:08:48;;;;;;;10.50;5.10;;;23.20;54.10;;;27.01;36.88;101840.63;5093369;28;20498;-9
2021/09/03 10:11:18;;;;;;;10.43;4.97;;;23.20;54.10;;;26.99;36.69;101830.00;5091826;28;20048;-9